Ocean Princess — 3FTV4 — position and weather

sailwx.info

Track history (hours):
 
Tides and Currents Weather Stations Pressure Air Temp Water Temp Dewpoint Dewpoint Depression Visibility Wind Speed Wind Dir Waves Ship Positions

Ocean Princess

Last reported at 2018-May-18 23:52 UTC. Time now 2018-May-22 17:27 UTC.
Position N 17°53' W 063°35'.

Length 113 m; draft 5.1 m.

Type: Ship (hazmat cat A). MMSI: 370425000.

Date/timePositionNaut miles runAvg speedWind from/ knotsBaromVisibWave heightAir tempDewpointWater temp
2018-May-18 23:52N 17°53' W 063°35'18 6.7
2018-May-18 21:10N 18°11' W 063°32'212.6
2018-May-18 20:58N 18°10' W 063°30'612.2
2018-May-18 20:29N 18°10' W 063°23'612.4
2018-May-18 20:00N 18°09' W 063°17'612.0
2018-May-18 19:30N 18°08' W 063°11'7 0.4
2018-May-18 03:35N 18°10' W 063°04'2 8.9
2018-May-18 03:21N 18°09' W 063°05'410.0
2018-May-18 02:59N 18°07' W 063°08'5 8.9
2018-May-18 02:27N 18°02' W 063°10'611.9
2018-May-18 01:58N 17°57' W 063°07'612.0
2018-May-18 01:29N 17°52' W 063°05'812.0
2018-May-18 00:51N 17°45' W 063°02'411.5
2018-May-18 00:28N 17°41' W 062°60'  
2018-May-12 21:24N 17°30' W 062°55'4 9.0
2018-May-12 20:54N 17°34' W 062°57'4 9.0
2018-May-12 20:29N 17°37' W 062°58'5 9.0
2018-May-12 19:56N 17°42' W 063°00'4 8.9
2018-May-12 19:28N 17°46' W 063°02'4 8.8
2018-May-12 19:00N 17°49' W 063°04'5 8.9
2018-May-12 18:25N 17°54' W 063°06'4 9.0
2018-May-12 17:57N 17°58' W 063°08'4 9.1
2018-May-12 17:29N 18°02' W 063°10'4 8.3
2018-May-12 17:01N 18°06' W 063°10'4 7.8
2018-May-12 16:31N 18°05' W 063°06'0 0.2
2018-May-12 16:00N 18°05' W 063°06'0 0.1
2018-May-12 15:30N 18°05' W 063°06'0 0.0
2018-May-12 15:00N 18°05' W 063°06'0 0.0
2018-May-12 14:30N 18°05' W 063°06'0 0.1
2018-May-12 14:00N 18°05' W 063°06'0 0.0
2018-May-12 13:30N 18°05' W 063°06'0 0.0
2018-May-12 13:00N 18°05' W 063°06'0 0.0
2018-May-12 12:30N 18°05' W 063°06'0 0.0
2018-May-12 12:00N 18°05' W 063°06'0 0.0
2018-May-12 11:30N 18°05' W 063°06'0 0.0
2018-May-12 11:00N 18°05' W 063°06'0 0.0
2018-May-12 10:30N 18°05' W 063°06'0 0.0
2018-May-12 10:00N 18°05' W 063°06'0 0.0
2018-May-12 09:30N 18°05' W 063°06'0 0.0
2018-May-12 09:00N 18°05' W 063°06'0 0.0
2018-May-12 08:30N 18°05' W 063°06'0 0.0
2018-May-12 08:00N 18°05' W 063°06'0 0.0
2018-May-12 07:30N 18°05' W 063°06'0 0.0
2018-May-12 06:51N 18°05' W 063°06'0 0.0
2018-May-12 06:18N 18°05' W 063°06'0 0.0
2018-May-12 05:51N 18°05' W 063°06'0 0.0
2018-May-12 05:21N 18°05' W 063°06'0 0.0
2018-May-12 04:51N 18°05' W 063°06'0 0.0
2018-May-12 04:18N 18°05' W 063°06'0 0.0
2018-May-12 03:48N 18°05' W 063°06'0 0.0
2018-May-12 03:24N 18°05' W 063°06'0 0.0
2018-May-12 02:53N 18°05' W 063°06'0 0.0
2018-May-12 02:24N 18°05' W 063°06'0 0.0
2018-May-12 01:54N 18°05' W 063°06'0 0.0
2018-May-12 01:23N 18°05' W 063°06'0 0.0
2018-May-12 00:54N 18°05' W 063°06'0 0.0
2018-May-12 00:21N 18°05' W 063°06'0 0.0
2018-May-11 23:53N 18°05' W 063°06'0 0.0
2018-May-11 23:20N 18°05' W 063°06'0 0.0
2018-May-11 22:53N 18°05' W 063°06'0 0.0
2018-May-11 22:24N 18°05' W 063°06'0 0.0
2018-May-11 21:53N 18°05' W 063°06'0 0.0
2018-May-11 21:23N 18°05' W 063°06'0 0.0
2018-May-11 20:53N 18°05' W 063°06'0 0.0
2018-May-11 20:23N 18°05' W 063°06'0 0.1
2018-May-11 19:42N 18°05' W 063°06'0 0.1
2018-May-11 19:26N 18°05' W 063°06'0 0.0
2018-May-11 18:53N 18°05' W 063°06'0 0.0
2018-May-11 18:26N 18°05' W 063°06'0 0.0
2018-May-11 17:57N 18°05' W 063°06'0 0.0
2018-May-11 17:26N 18°05' W 063°06'0 0.0
2018-May-11 16:53N 18°05' W 063°06'0 0.0
2018-May-11 16:26N 18°05' W 063°06'0 0.0
2018-May-11 15:54N 18°05' W 063°06'0 0.0
2018-May-11 15:23N 18°05' W 063°06'0 0.0
2018-May-11 14:53N 18°05' W 063°06'0 0.0
2018-May-11 14:23N 18°05' W 063°06'0 0.0
2018-May-11 13:59N 18°05' W 063°06'0 0.0
2018-May-11 13:23N 18°05' W 063°06'0 0.0
2018-May-11 12:59N 18°05' W 063°06'0 0.0
2018-May-11 12:29N 18°05' W 063°06'0 0.0
2018-May-11 11:59N 18°05' W 063°06'0 0.0
2018-May-11 11:29N 18°05' W 063°06'0 0.0
2018-May-11 10:59N 18°05' W 063°06'0 0.0
2018-May-11 10:29N 18°05' W 063°06'0 0.0
2018-May-11 09:59N 18°05' W 063°06'0 0.0
2018-May-11 09:29N 18°05' W 063°06'0 0.1
2018-May-11 08:59N 18°05' W 063°06'0 0.0
2018-May-11 08:26N 18°05' W 063°06'0 0.0
2018-May-11 07:56N 18°05' W 063°06'0 0.1
2018-May-11 07:29N 18°05' W 063°06'0 0.0
2018-May-11 06:59N 18°05' W 063°06'0 0.0
2018-May-11 06:29N 18°05' W 063°06'0 0.0
2018-May-11 05:47N 18°05' W 063°06'0 0.0
2018-May-11 05:29N 18°05' W 063°06'0 0.0
2018-May-11 04:59N 18°05' W 063°06'0 0.0
2018-May-11 04:29N 18°05' W 063°06'0 0.0
2018-May-11 03:59N 18°05' W 063°06'0 0.0
2018-May-11 03:29N 18°05' W 063°06'0 0.0
2018-May-11 02:59N 18°05' W 063°06'0 0.0
2018-May-11 02:29N 18°05' W 063°06'0 0.0
2018-May-11 01:58N 18°05' W 063°06'0 0.0
2018-May-11 01:29N 18°05' W 063°06'0 0.0
2018-May-11 00:58N 18°05' W 063°06'0 0.0
2018-May-11 00:29N 18°05' W 063°06'0 0.0
2018-May-10 23:59N 18°05' W 063°06'0 0.0
2018-May-10 23:29N 18°05' W 063°06'0 0.0
2018-May-10 22:59N 18°05' W 063°06'0 0.0
2018-May-10 22:17N 18°05' W 063°06'0 0.1
2018-May-10 21:58N 18°05' W 063°06'0 0.0
2018-May-10 21:28N 18°05' W 063°06'0 0.0
2018-May-10 20:59N 18°05' W 063°06'0 0.0
2018-May-10 20:28N 18°05' W 063°06'0 0.0
2018-May-10 19:46N 18°05' W 063°06'0 0.0
2018-May-10 19:19N 18°05' W 063°06'0 0.0
2018-May-10 18:46N 18°05' W 063°06'0 0.0
2018-May-10 18:16N 18°05' W 063°06'0 0.0
2018-May-10 17:46N 18°05' W 063°06'0 0.1
2018-May-10 17:16N 18°05' W 063°06'0 0.0
2018-May-10 16:49N 18°05' W 063°06'0 0.0
2018-May-10 16:22N 18°05' W 063°06'0 0.0
2018-May-10 15:52N 18°05' W 063°06'0 0.0
2018-May-10 15:22N 18°05' W 063°06'0 0.1
2018-May-10 14:52N 18°05' W 063°06'0 0.0
2018-May-10 14:22N 18°05' W 063°06'0 0.0
2018-May-10 13:52N 18°05' W 063°06'0 0.0
2018-May-10 13:22N 18°05' W 063°06'0 0.0
2018-May-10 12:52N 18°05' W 063°06'0 0.0
2018-May-10 12:22N 18°05' W 063°06'0 0.0
2018-May-10 11:52N 18°05' W 063°06'0 0.0
2018-May-10 11:22N 18°05' W 063°06'0 0.0
2018-May-10 10:52N 18°05' W 063°06'0 0.0
2018-May-10 10:22N 18°05' W 063°06'0 0.0
2018-May-10 09:52N 18°05' W 063°06'0 0.0
2018-May-10 09:25N 18°05' W 063°06'0 0.0
2018-May-10 08:52N 18°05' W 063°06'0 0.0
2018-May-10 08:25N 18°05' W 063°06'0 0.0
2018-May-10 07:55N 18°05' W 063°06'0 0.0
2018-May-10 07:25N 18°05' W 063°06'0 0.0
2018-May-10 06:55N 18°05' W 063°06'0 0.0
2018-May-10 06:22N 18°05' W 063°06'0 0.0
2018-May-10 05:52N 18°05' W 063°06'0 0.0
2018-May-10 05:25N 18°05' W 063°06'0 0.0
2018-May-10 04:52N 18°05' W 063°06'0 0.0
2018-May-10 04:22N 18°05' W 063°06'0 0.0
2018-May-10 03:52N 18°05' W 063°06'0 0.0
2018-May-10 03:25N 18°05' W 063°06'0 0.0
2018-May-10 02:55N 18°05' W 063°06'0 0.0
2018-May-10 02:28N 18°05' W 063°06'0 0.0
2018-May-10 01:51N 18°05' W 063°06'0 0.0
2018-May-10 01:27N 18°05' W 063°06'0 0.0
2018-May-10 00:57N 18°05' W 063°06'0 0.0
2018-May-10 00:27N 18°05' W 063°06'0 0.0
2018-May-09 23:57N 18°05' W 063°06'0 0.0
2018-May-09 23:28N 18°05' W 063°06'0 0.0
2018-May-09 22:57N 18°05' W 063°06'0 0.0
2018-May-09 22:27N 18°05' W 063°06'0 0.0
2018-May-09 21:57N 18°05' W 063°06'0 0.0
2018-May-09 21:27N 18°05' W 063°06'0 0.0
2018-May-09 20:57N 18°05' W 063°06'0 0.0
2018-May-09 20:27N 18°05' W 063°06'0 0.0
2018-May-09 19:57N 18°05' W 063°06'0 0.0
2018-May-09 19:27N 18°05' W 063°06'0 0.0
2018-May-09 18:57N 18°05' W 063°06'0 0.0
2018-May-09 18:27N 18°05' W 063°06'0 0.1
2018-May-09 17:57N 18°05' W 063°06'0 0.0
2018-May-09 17:15N 18°05' W 063°06'0 0.0
2018-May-09 17:00N 18°05' W 063°06'0 0.0
2018-May-09 16:30N 18°05' W 063°06'0 0.0
2018-May-09 16:00N 18°05' W 063°06'0 0.1
2018-May-09 15:30N 18°05' W 063°06'0 0.0
2018-May-09 15:00N 18°05' W 063°06'0 0.0
2018-May-09 14:27N 18°05' W 063°06'0 0.0
2018-May-09 14:00N 18°05' W 063°06'0 0.0
2018-May-09 13:27N 18°05' W 063°06'0 0.0
2018-May-09 13:00N 18°05' W 063°06'0 0.0
2018-May-09 12:27N 18°05' W 063°06'0 0.0
2018-May-09 11:48N 18°05' W 063°06'0 0.0
2018-May-09 11:27N 18°05' W 063°06'0 0.0
2018-May-09 10:57N 18°05' W 063°06'0 0.0
2018-May-09 10:27N 18°05' W 063°06'0 0.0
2018-May-09 09:57N 18°05' W 063°06'0 0.0
2018-May-09 09:30N 18°05' W 063°06'0 0.0
2018-May-09 09:00N 18°05' W 063°06'0 0.0
2018-May-09 08:30N 18°05' W 063°06'0 0.0
2018-May-09 08:00N 18°05' W 063°06'0 0.0
2018-May-09 07:30N 18°05' W 063°06'0 0.0
2018-May-09 07:00N 18°05' W 063°06'0 0.0
2018-May-09 06:30N 18°05' W 063°06'0 0.0
2018-May-09 06:00N 18°05' W 063°06'0 0.0
2018-May-09 05:18N 18°05' W 063°06'0 0.0
2018-May-09 04:48N 18°05' W 063°06'0 0.0
2018-May-09 04:15N 18°05' W 063°06'0 0.0
2018-May-09 04:00N 18°05' W 063°06'0 0.0
2018-May-09 03:30N 18°05' W 063°06'0 0.0
2018-May-09 03:00N 18°05' W 063°06'0 0.0
2018-May-09 02:30N 18°05' W 063°06'0 0.0
2018-May-09 02:00N 18°05' W 063°06'0 0.0
2018-May-09 01:21N 18°05' W 063°06'0 0.0
2018-May-09 00:50N 18°05' W 063°06'0 0.0
2018-May-09 00:21N 18°05' W 063°06'  
Track history (hours):
 
Tides and Currents Weather Stations Pressure Air Temp Water Temp Dewpoint Dewpoint Depression Visibility Wind Speed Wind Dir Waves Ship Positions

Ocean Princess

Last reported at 2018-May-18 23:52 UTC. Time now 2018-May-22 17:27 UTC.
Position N 17°53' W 063°35'.

Length 113 m; draft 5.1 m.

Type: Ship (hazmat cat A). MMSI: 370425000.

Date/timePositionNaut miles runAvg speedWind from/ knotsBaromVisibWave heightAir tempDewpointWater temp
2018-May-18 23:52N 17°53' W 063°35'18 6.7
2018-May-18 21:10N 18°11' W 063°32'212.6
2018-May-18 20:58N 18°10' W 063°30'612.2
2018-May-18 20:29N 18°10' W 063°23'612.4
2018-May-18 20:00N 18°09' W 063°17'612.0
2018-May-18 19:30N 18°08' W 063°11'7 0.4
2018-May-18 03:35N 18°10' W 063°04'2 8.9
2018-May-18 03:21N 18°09' W 063°05'410.0
2018-May-18 02:59N 18°07' W 063°08'5 8.9
2018-May-18 02:27N 18°02' W 063°10'611.9
2018-May-18 01:58N 17°57' W 063°07'612.0
2018-May-18 01:29N 17°52' W 063°05'812.0
2018-May-18 00:51N 17°45' W 063°02'411.5
2018-May-18 00:28N 17°41' W 062°60'  
2018-May-12 21:24N 17°30' W 062°55'4 9.0
2018-May-12 20:54N 17°34' W 062°57'4 9.0
2018-May-12 20:29N 17°37' W 062°58'5 9.0
2018-May-12 19:56N 17°42' W 063°00'4 8.9
2018-May-12 19:28N 17°46' W 063°02'4 8.8
2018-May-12 19:00N 17°49' W 063°04'5 8.9
2018-May-12 18:25N 17°54' W 063°06'4 9.0
2018-May-12 17:57N 17°58' W 063°08'4 9.1
2018-May-12 17:29N 18°02' W 063°10'4 8.3
2018-May-12 17:01N 18°06' W 063°10'4 7.8
2018-May-12 16:31N 18°05' W 063°06'0 0.2
2018-May-12 16:00N 18°05' W 063°06'0 0.1
2018-May-12 15:30N 18°05' W 063°06'0 0.0
2018-May-12 15:00N 18°05' W 063°06'0 0.0
2018-May-12 14:30N 18°05' W 063°06'0 0.1
2018-May-12 14:00N 18°05' W 063°06'0 0.0
2018-May-12 13:30N 18°05' W 063°06'0 0.0
2018-May-12 13:00N 18°05' W 063°06'0 0.0
2018-May-12 12:30N 18°05' W 063°06'0 0.0
2018-May-12 12:00N 18°05' W 063°06'0 0.0
2018-May-12 11:30N 18°05' W 063°06'0 0.0
2018-May-12 11:00N 18°05' W 063°06'0 0.0
2018-May-12 10:30N 18°05' W 063°06'0 0.0
2018-May-12 10:00N 18°05' W 063°06'0 0.0
2018-May-12 09:30N 18°05' W 063°06'0 0.0
2018-May-12 09:00N 18°05' W 063°06'0 0.0
2018-May-12 08:30N 18°05' W 063°06'0 0.0
2018-May-12 08:00N 18°05' W 063°06'0 0.0
2018-May-12 07:30N 18°05' W 063°06'0 0.0
2018-May-12 06:51N 18°05' W 063°06'0 0.0
2018-May-12 06:18N 18°05' W 063°06'0 0.0
2018-May-12 05:51N 18°05' W 063°06'0 0.0
2018-May-12 05:21N 18°05' W 063°06'0 0.0
2018-May-12 04:51N 18°05' W 063°06'0 0.0
2018-May-12 04:18N 18°05' W 063°06'0 0.0
2018-May-12 03:48N 18°05' W 063°06'0 0.0
2018-May-12 03:24N 18°05' W 063°06'0 0.0
2018-May-12 02:53N 18°05' W 063°06'0 0.0
2018-May-12 02:24N 18°05' W 063°06'0 0.0
2018-May-12 01:54N 18°05' W 063°06'0 0.0
2018-May-12 01:23N 18°05' W 063°06'0 0.0
2018-May-12 00:54N 18°05' W 063°06'0 0.0
2018-May-12 00:21N 18°05' W 063°06'0 0.0
2018-May-11 23:53N 18°05' W 063°06'0 0.0
2018-May-11 23:20N 18°05' W 063°06'0 0.0
2018-May-11 22:53N 18°05' W 063°06'0 0.0
2018-May-11 22:24N 18°05' W 063°06'0 0.0
2018-May-11 21:53N 18°05' W 063°06'0 0.0
2018-May-11 21:23N 18°05' W 063°06'0 0.0
2018-May-11 20:53N 18°05' W 063°06'0 0.0
2018-May-11 20:23N 18°05' W 063°06'0 0.1
2018-May-11 19:42N 18°05' W 063°06'0 0.1
2018-May-11 19:26N 18°05' W 063°06'0 0.0
2018-May-11 18:53N 18°05' W 063°06'0 0.0
2018-May-11 18:26N 18°05' W 063°06'0 0.0
2018-May-11 17:57N 18°05' W 063°06'0 0.0
2018-May-11 17:26N 18°05' W 063°06'0 0.0
2018-May-11 16:53N 18°05' W 063°06'0 0.0
2018-May-11 16:26N 18°05' W 063°06'0 0.0
2018-May-11 15:54N 18°05' W 063°06'0 0.0
2018-May-11 15:23N 18°05' W 063°06'0 0.0
2018-May-11 14:53N 18°05' W 063°06'0 0.0
2018-May-11 14:23N 18°05' W 063°06'0 0.0
2018-May-11 13:59N 18°05' W 063°06'0 0.0
2018-May-11 13:23N 18°05' W 063°06'0 0.0
2018-May-11 12:59N 18°05' W 063°06'0 0.0
2018-May-11 12:29N 18°05' W 063°06'0 0.0
2018-May-11 11:59N 18°05' W 063°06'0 0.0
2018-May-11 11:29N 18°05' W 063°06'0 0.0
2018-May-11 10:59N 18°05' W 063°06'0 0.0
2018-May-11 10:29N 18°05' W 063°06'0 0.0
2018-May-11 09:59N 18°05' W 063°06'0 0.0
2018-May-11 09:29N 18°05' W 063°06'0 0.1
2018-May-11 08:59N 18°05' W 063°06'0 0.0
2018-May-11 08:26N 18°05' W 063°06'0 0.0
2018-May-11 07:56N 18°05' W 063°06'0 0.1
2018-May-11 07:29N 18°05' W 063°06'0 0.0
2018-May-11 06:59N 18°05' W 063°06'0 0.0
2018-May-11 06:29N 18°05' W 063°06'0 0.0
2018-May-11 05:47N 18°05' W 063°06'0 0.0
2018-May-11 05:29N 18°05' W 063°06'0 0.0
2018-May-11 04:59N 18°05' W 063°06'0 0.0
2018-May-11 04:29N 18°05' W 063°06'0 0.0
2018-May-11 03:59N 18°05' W 063°06'0 0.0
2018-May-11 03:29N 18°05' W 063°06'0 0.0
2018-May-11 02:59N 18°05' W 063°06'0 0.0
2018-May-11 02:29N 18°05' W 063°06'0 0.0
2018-May-11 01:58N 18°05' W 063°06'0 0.0
2018-May-11 01:29N 18°05' W 063°06'0 0.0
2018-May-11 00:58N 18°05' W 063°06'0 0.0
2018-May-11 00:29N 18°05' W 063°06'0 0.0
2018-May-10 23:59N 18°05' W 063°06'0 0.0
2018-May-10 23:29N 18°05' W 063°06'0 0.0
2018-May-10 22:59N 18°05' W 063°06'0 0.0
2018-May-10 22:17N 18°05' W 063°06'0 0.1
2018-May-10 21:58N 18°05' W 063°06'0 0.0
2018-May-10 21:28N 18°05' W 063°06'0 0.0
2018-May-10 20:59N 18°05' W 063°06'0 0.0
2018-May-10 20:28N 18°05' W 063°06'0 0.0
2018-May-10 19:46N 18°05' W 063°06'0 0.0
2018-May-10 19:19N 18°05' W 063°06'0 0.0
2018-May-10 18:46N 18°05' W 063°06'0 0.0
2018-May-10 18:16N 18°05' W 063°06'0 0.0
2018-May-10 17:46N 18°05' W 063°06'0 0.1
2018-May-10 17:16N 18°05' W 063°06'0 0.0
2018-May-10 16:49N 18°05' W 063°06'0 0.0
2018-May-10 16:22N 18°05' W 063°06'0 0.0
2018-May-10 15:52N 18°05' W 063°06'0 0.0
2018-May-10 15:22N 18°05' W 063°06'0 0.1
2018-May-10 14:52N 18°05' W 063°06'0 0.0
2018-May-10 14:22N 18°05' W 063°06'0 0.0
2018-May-10 13:52N 18°05' W 063°06'0 0.0
2018-May-10 13:22N 18°05' W 063°06'0 0.0
2018-May-10 12:52N 18°05' W 063°06'0 0.0
2018-May-10 12:22N 18°05' W 063°06'0 0.0
2018-May-10 11:52N 18°05' W 063°06'0 0.0
2018-May-10 11:22N 18°05' W 063°06'0 0.0
2018-May-10 10:52N 18°05' W 063°06'0 0.0
2018-May-10 10:22N 18°05' W 063°06'0 0.0
2018-May-10 09:52N 18°05' W 063°06'0 0.0
2018-May-10 09:25N 18°05' W 063°06'0 0.0
2018-May-10 08:52N 18°05' W 063°06'0 0.0
2018-May-10 08:25N 18°05' W 063°06'0 0.0
2018-May-10 07:55N 18°05' W 063°06'0 0.0
2018-May-10 07:25N 18°05' W 063°06'0 0.0
2018-May-10 06:55N 18°05' W 063°06'0 0.0
2018-May-10 06:22N 18°05' W 063°06'0 0.0
2018-May-10 05:52N 18°05' W 063°06'0 0.0
2018-May-10 05:25N 18°05' W 063°06'0 0.0
2018-May-10 04:52N 18°05' W 063°06'0 0.0
2018-May-10 04:22N 18°05' W 063°06'0 0.0
2018-May-10 03:52N 18°05' W 063°06'0 0.0
2018-May-10 03:25N 18°05' W 063°06'0 0.0
2018-May-10 02:55N 18°05' W 063°06'0 0.0
2018-May-10 02:28N 18°05' W 063°06'0 0.0
2018-May-10 01:51N 18°05' W 063°06'0 0.0
2018-May-10 01:27N 18°05' W 063°06'0 0.0
2018-May-10 00:57N 18°05' W 063°06'0 0.0
2018-May-10 00:27N 18°05' W 063°06'0 0.0
2018-May-09 23:57N 18°05' W 063°06'0 0.0
2018-May-09 23:28N 18°05' W 063°06'0 0.0
2018-May-09 22:57N 18°05' W 063°06'0 0.0
2018-May-09 22:27N 18°05' W 063°06'0 0.0
2018-May-09 21:57N 18°05' W 063°06'0 0.0
2018-May-09 21:27N 18°05' W 063°06'0 0.0
2018-May-09 20:57N 18°05' W 063°06'0 0.0
2018-May-09 20:27N 18°05' W 063°06'0 0.0
2018-May-09 19:57N 18°05' W 063°06'0 0.0
2018-May-09 19:27N 18°05' W 063°06'0 0.0
2018-May-09 18:57N 18°05' W 063°06'0 0.0
2018-May-09 18:27N 18°05' W 063°06'0 0.1
2018-May-09 17:57N 18°05' W 063°06'0 0.0
2018-May-09 17:15N 18°05' W 063°06'0 0.0
2018-May-09 17:00N 18°05' W 063°06'0 0.0
2018-May-09 16:30N 18°05' W 063°06'0 0.0
2018-May-09 16:00N 18°05' W 063°06'0 0.1
2018-May-09 15:30N 18°05' W 063°06'0 0.0
2018-May-09 15:00N 18°05' W 063°06'0 0.0
2018-May-09 14:27N 18°05' W 063°06'0 0.0
2018-May-09 14:00N 18°05' W 063°06'0 0.0
2018-May-09 13:27N 18°05' W 063°06'0 0.0
2018-May-09 13:00N 18°05' W 063°06'0 0.0
2018-May-09 12:27N 18°05' W 063°06'0 0.0
2018-May-09 11:48N 18°05' W 063°06'0 0.0
2018-May-09 11:27N 18°05' W 063°06'0 0.0
2018-May-09 10:57N 18°05' W 063°06'0 0.0
2018-May-09 10:27N 18°05' W 063°06'0 0.0
2018-May-09 09:57N 18°05' W 063°06'0 0.0
2018-May-09 09:30N 18°05' W 063°06'0 0.0
2018-May-09 09:00N 18°05' W 063°06'0 0.0
2018-May-09 08:30N 18°05' W 063°06'0 0.0
2018-May-09 08:00N 18°05' W 063°06'0 0.0
2018-May-09 07:30N 18°05' W 063°06'0 0.0
2018-May-09 07:00N 18°05' W 063°06'0 0.0
2018-May-09 06:30N 18°05' W 063°06'0 0.0
2018-May-09 06:00N 18°05' W 063°06'0 0.0
2018-May-09 05:18N 18°05' W 063°06'0 0.0
2018-May-09 04:48N 18°05' W 063°06'0 0.0
2018-May-09 04:15N 18°05' W 063°06'0 0.0
2018-May-09 04:00N 18°05' W 063°06'0 0.0
2018-May-09 03:30N 18°05' W 063°06'0 0.0
2018-May-09 03:00N 18°05' W 063°06'0 0.0
2018-May-09 02:30N 18°05' W 063°06'0 0.0
2018-May-09 02:00N 18°05' W 063°06'0 0.0
2018-May-09 01:21N 18°05' W 063°06'0 0.0
2018-May-09 00:50N 18°05' W 063°06'0 0.0
2018-May-09 00:21N 18°05' W 063°06'  

Dump ship's entire track history